Search for airport 
image banner adimage banner adimage banner ad
image banner ad

KCCB - Cable

Located in Upland, United States

ICAO - CCB, IATA - CCB

Data provided by Airmate  

General information

Coordinates: N34°6'42" W117°41'15"
Elevation is 1444 feet MSL.
Magnetic variation is 14° East
View others Airports in California

Operational data

Special qualification required
Current time UTC:
Current local time:
Weather
METAR: KCCB 211035Z AUTO 00000KT 10SM 18/14 A2993 RMK AO2
View NOTAMs / SUP AIP / TFR affecting this airport [VIEW]
Communications frequencies: [VIEW]

Runways:

RWY identifierQFULength (ft)Width (ft)SurfaceLDA (ft)
0669°386375ASPH
24249°386375ASPH

Airport contact information

Address: Upland United States

Other aviation service providers

Flight schools

Foothill Flying Club

Foothill Flying Club

Satellite view of KCCB